sensor_id;sensor_type;location;lat;lon;timestamp;temperature;humidity
75457;SHT31;64036;48.266;14.192;2022-12-07T00:01:37;4.54;83.21
75457;SHT31;64036;48.266;14.192;2022-12-07T00:04:05;4.56;83.20
75457;SHT31;64036;48.266;14.192;2022-12-07T00:06:37;4.58;83.24
75457;SHT31;64036;48.266;14.192;2022-12-07T00:09:06;4.60;83.29
75457;SHT31;64036;48.266;14.192;2022-12-07T00:11:36;4.57;83.33
75457;SHT31;64036;48.266;14.192;2022-12-07T00:14:02;4.55;83.42
75457;SHT31;64036;48.266;14.192;2022-12-07T00:16:32;4.53;83.52
75457;SHT31;64036;48.266;14.192;2022-12-07T00:18:59;4.52;83.54
75457;SHT31;64036;48.266;14.192;2022-12-07T00:21:27;4.51;83.51
75457;SHT31;64036;48.266;14.192;2022-12-07T00:23:55;4.48;83.54
75457;SHT31;64036;48.266;14.192;2022-12-07T00:26:25;4.49;83.60
75457;SHT31;64036;48.266;14.192;2022-12-07T00:28:57;4.50;83.58
75457;SHT31;64036;48.266;14.192;2022-12-07T00:31:26;4.52;83.54
75457;SHT31;64036;48.266;14.192;2022-12-07T00:33:56;4.53;83.51
75457;SHT31;64036;48.266;14.192;2022-12-07T00:36:23;4.52;83.45
75457;SHT31;64036;48.266;14.192;2022-12-07T00:38:50;4.50;83.50
75457;SHT31;64036;48.266;14.192;2022-12-07T00:41:22;4.47;83.49
75457;SHT31;64036;48.266;14.192;2022-12-07T00:43:50;4.45;83.60
75457;SHT31;64036;48.266;14.192;2022-12-07T00:46:17;4.43;83.63
75457;SHT31;64036;48.266;14.192;2022-12-07T00:48:45;4.41;83.65
75457;SHT31;64036;48.266;14.192;2022-12-07T00:51:12;4.41;83.69
75457;SHT31;64036;48.266;14.192;2022-12-07T00:53:39;4.41;83.74
75457;SHT31;64036;48.266;14.192;2022-12-07T00:56:07;4.39;83.79
75457;SHT31;64036;48.266;14.192;2022-12-07T00:58:34;4.38;83.80
75457;SHT31;64036;48.266;14.192;2022-12-07T01:01:00;4.37;83.80
75457;SHT31;64036;48.266;14.192;2022-12-07T01:03:27;4.38;83.86
75457;SHT31;64036;48.266;14.192;2022-12-07T01:05:54;4.39;83.80
75457;SHT31;64036;48.266;14.192;2022-12-07T01:08:21;4.39;83.73
75457;SHT31;64036;48.266;14.192;2022-12-07T01:10:49;4.38;83.70
75457;SHT31;64036;48.266;14.192;2022-12-07T01:13:22;4.37;83.70
75457;SHT31;64036;48.266;14.192;2022-12-07T01:15:47;4.38;83.70
75457;SHT31;64036;48.266;14.192;2022-12-07T01:18:13;4.36;83.70
75457;SHT31;64036;48.266;14.192;2022-12-07T01:20:38;4.36;83.71
75457;SHT31;64036;48.266;14.192;2022-12-07T01:23:04;4.35;83.77
75457;SHT31;64036;48.266;14.192;2022-12-07T01:25:30;4.36;83.80
75457;SHT31;64036;48.266;14.192;2022-12-07T01:28:05;4.36;83.80
75457;SHT31;64036;48.266;14.192;2022-12-07T01:30:30;4.36;83.74
75457;SHT31;64036;48.266;14.192;2022-12-07T01:32:56;4.34;83.70
75457;SHT31;64036;48.266;14.192;2022-12-07T01:35:21;4.33;83.68
75457;SHT31;64036;48.266;14.192;2022-12-07T01:37:47;4.33;83.69
75457;SHT31;64036;48.266;14.192;2022-12-07T01:40:12;4.32;83.60
75457;SHT31;64036;48.266;14.192;2022-12-07T01:42:38;4.31;83.60
75457;SHT31;64036;48.266;14.192;2022-12-07T01:48:07;4.31;83.56
75457;SHT31;64036;48.266;14.192;2022-12-07T01:50:35;4.31;83.53
75457;SHT31;64036;48.266;14.192;2022-12-07T01:53:03;4.31;83.50
75457;SHT31;64036;48.266;14.192;2022-12-07T01:55:32;4.29;83.52
75457;SHT31;64036;48.266;14.192;2022-12-07T01:57:59;4.27;83.60
75457;SHT31;64036;48.266;14.192;2022-12-07T02:00:25;4.26;83.61
75457;SHT31;64036;48.266;14.192;2022-12-07T02:02:52;4.24;83.60
75457;SHT31;64036;48.266;14.192;2022-12-07T02:05:41;4.21;83.72
75457;SHT31;64036;48.266;14.192;2022-12-07T02:08:08;4.20;83.78
75457;SHT31;64036;48.266;14.192;2022-12-07T02:10:35;4.19;83.79
75457;SHT31;64036;48.266;14.192;2022-12-07T02:13:21;4.19;83.79
75457;SHT31;64036;48.266;14.192;2022-12-07T02:15:56;4.18;83.76
75457;SHT31;64036;48.266;14.192;2022-12-07T02:19:22;4.19;83.75
75457;SHT31;64036;48.266;14.192;2022-12-07T02:28:25;4.18;83.70
75457;SHT31;64036;48.266;14.192;2022-12-07T02:30:54;4.18;83.68
75457;SHT31;64036;48.266;14.192;2022-12-07T02:33:26;4.18;83.68
75457;SHT31;64036;48.266;14.192;2022-12-07T02:38:48;4.18;83.60
75457;SHT31;64036;48.266;14.192;2022-12-07T02:44:10;4.15;83.60
75457;SHT31;64036;48.266;14.192;2022-12-07T02:46:40;4.14;83.60
75457;SHT31;64036;48.266;14.192;2022-12-07T02:49:10;4.13;83.63
75457;SHT31;64036;48.266;14.192;2022-12-07T02:51:41;4.13;83.60
75457;SHT31;64036;48.266;14.192;2022-12-07T02:54:13;4.13;83.62
75457;SHT31;64036;48.266;14.192;2022-12-07T03:02:10;4.13;83.50
75457;SHT31;64036;48.266;14.192;2022-12-07T03:11:09;4.15;83.31
75457;SHT31;64036;48.266;14.192;2022-12-07T03:19:15;4.17;83.23
75457;SHT31;64036;48.266;14.192;2022-12-07T03:22:07;4.15;83.21
75457;SHT31;64036;48.266;14.192;2022-12-07T03:27:26;4.16;83.25
75457;SHT31;64036;48.266;14.192;2022-12-07T03:32:36;4.14;83.20
75457;SHT31;64036;48.266;14.192;2022-12-07T03:35:55;4.12;83.18
75457;SHT31;64036;48.266;14.192;2022-12-07T03:38:21;4.11;83.10
75457;SHT31;64036;48.266;14.192;2022-12-07T03:41:01;4.11;83.09
75457;SHT31;64036;48.266;14.192;2022-12-07T03:43:36;4.09;83.03
75457;SHT31;64036;48.266;14.192;2022-12-07T03:46:14;4.09;83.00
75457;SHT31;64036;48.266;14.192;2022-12-07T03:55:14;4.08;82.91
75457;SHT31;64036;48.266;14.192;2022-12-07T03:57:49;4.09;82.86
75457;SHT31;64036;48.266;14.192;2022-12-07T04:00:20;4.09;82.81
75457;SHT31;64036;48.266;14.192;2022-12-07T04:02:46;4.08;82.76
75457;SHT31;64036;48.266;14.192;2022-12-07T04:05:12;4.07;82.70
75457;SHT31;64036;48.266;14.192;2022-12-07T04:07:38;4.06;82.69
75457;SHT31;64036;48.266;14.192;2022-12-07T04:10:04;4.04;82.70
75457;SHT31;64036;48.266;14.192;2022-12-07T04:12:30;4.04;82.77
75457;SHT31;64036;48.266;14.192;2022-12-07T04:14:56;4.03;82.80
75457;SHT31;64036;48.266;14.192;2022-12-07T04:17:21;4.02;82.86
75457;SHT31;64036;48.266;14.192;2022-12-07T04:19:47;4.01;82.92
75457;SHT31;64036;48.266;14.192;2022-12-07T04:22:12;4.01;83.00
75457;SHT31;64036;48.266;14.192;2022-12-07T04:24:38;4.01;83.04
75457;SHT31;64036;48.266;14.192;2022-12-07T04:27:03;4.07;82.98
75457;SHT31;64036;48.266;14.192;2022-12-07T04:29:29;4.11;82.84
75457;SHT31;64036;48.266;14.192;2022-12-07T04:31:55;4.10;82.79
75457;SHT31;64036;48.266;14.192;2022-12-07T04:34:20;4.08;82.78
75457;SHT31;64036;48.266;14.192;2022-12-07T04:36:46;4.08;82.76
75457;SHT31;64036;48.266;14.192;2022-12-07T04:41:48;4.07;82.74
75457;SHT31;64036;48.266;14.192;2022-12-07T04:44:15;4.05;82.72
75457;SHT31;64036;48.266;14.192;2022-12-07T04:46:41;4.04;82.73
75457;SHT31;64036;48.266;14.192;2022-12-07T04:49:07;4.03;82.70
75457;SHT31;64036;48.266;14.192;2022-12-07T04:51:33;4.02;82.70
75457;SHT31;64036;48.266;14.192;2022-12-07T04:53:59;4.01;82.74
75457;SHT31;64036;48.266;14.192;2022-12-07T04:56:25;4.00;82.70
75457;SHT31;64036;48.266;14.192;2022-12-07T04:58:51;4.01;82.72
75457;SHT31;64036;48.266;14.192;2022-12-07T05:01:19;3.99;82.71
75457;SHT31;64036;48.266;14.192;2022-12-07T05:03:47;3.99;82.70
75457;SHT31;64036;48.266;14.192;2022-12-07T05:06:13;4.00;82.70
75457;SHT31;64036;48.266;14.192;2022-12-07T05:08:42;4.00;82.70
75457;SHT31;64036;48.266;14.192;2022-12-07T05:11:08;4.00;82.79
75457;SHT31;64036;48.266;14.192;2022-12-07T05:13:54;4.00;82.77
75457;SHT31;64036;48.266;14.192;2022-12-07T05:16:21;4.00;82.73
75457;SHT31;64036;48.266;14.192;2022-12-07T05:18:46;4.00;82.70
75457;SHT31;64036;48.266;14.192;2022-12-07T05:21:12;4.00;82.68
75457;SHT31;64036;48.266;14.192;2022-12-07T05:23:37;3.99;82.68
75457;SHT31;64036;48.266;14.192;2022-12-07T05:26:03;4.01;82.65
75457;SHT31;64036;48.266;14.192;2022-12-07T05:28:28;4.00;82.53
75457;SHT31;64036;48.266;14.192;2022-12-07T05:30:54;4.00;82.47
75457;SHT31;64036;48.266;14.192;2022-12-07T05:33:19;3.99;82.40
75457;SHT31;64036;48.266;14.192;2022-12-07T05:35:45;3.97;82.35
75457;SHT31;64036;48.266;14.192;2022-12-07T05:38:11;3.98;82.30
75457;SHT31;64036;48.266;14.192;2022-12-07T05:40:36;3.99;82.26
75457;SHT31;64036;48.266;14.192;2022-12-07T05:43:02;3.95;82.14
75457;SHT31;64036;48.266;14.192;2022-12-07T05:45:28;3.81;82.32
75457;SHT31;64036;48.266;14.192;2022-12-07T05:47:53;3.73;82.64
75457;SHT31;64036;48.266;14.192;2022-12-07T05:50:19;3.69;82.86
75457;SHT31;64036;48.266;14.192;2022-12-07T05:52:44;3.67;82.97
75457;SHT31;64036;48.266;14.192;2022-12-07T05:55:10;3.71;83.00
75457;SHT31;64036;48.266;14.192;2022-12-07T05:57:35;3.79;82.92
75457;SHT31;64036;48.266;14.192;2022-12-07T06:00:02;3.84;82.66
75457;SHT31;64036;48.266;14.192;2022-12-07T06:02:29;3.85;82.60
75457;SHT31;64036;48.266;14.192;2022-12-07T06:04:54;3.86;82.52
75457;SHT31;64036;48.266;14.192;2022-12-07T06:07:20;3.89;82.50
75457;SHT31;64036;48.266;14.192;2022-12-07T06:09:45;3.90;82.48
75457;SHT31;64036;48.266;14.192;2022-12-07T06:12:11;3.91;82.44
75457;SHT31;64036;48.266;14.192;2022-12-07T06:14:57;3.92;82.40
75457;SHT31;64036;48.266;14.192;2022-12-07T06:17:23;3.92;82.28
75457;SHT31;64036;48.266;14.192;2022-12-07T06:19:49;3.94;82.04
75457;SHT31;64036;48.266;14.192;2022-12-07T06:22:15;3.95;81.88
75457;SHT31;64036;48.266;14.192;2022-12-07T06:24:41;3.97;81.77
75457;SHT31;64036;48.266;14.192;2022-12-07T06:27:07;3.98;81.64
75457;SHT31;64036;48.266;14.192;2022-12-07T06:29:33;3.97;81.22
75457;SHT31;64036;48.266;14.192;2022-12-07T06:31:59;3.97;80.97
75457;SHT31;64036;48.266;14.192;2022-12-07T06:34:25;3.98;80.78
75457;SHT31;64036;48.266;14.192;2022-12-07T06:36:52;3.99;80.63
75457;SHT31;64036;48.266;14.192;2022-12-07T06:39:29;4.00;80.49
75457;SHT31;64036;48.266;14.192;2022-12-07T06:41:55;4.00;80.28
75457;SHT31;64036;48.266;14.192;2022-12-07T06:44:22;4.02;79.93
75457;SHT31;64036;48.266;14.192;2022-12-07T06:46:49;4.02;79.60
75457;SHT31;64036;48.266;14.192;2022-12-07T06:49:15;4.05;79.46
75457;SHT31;64036;48.266;14.192;2022-12-07T06:51:41;4.06;79.25
75457;SHT31;64036;48.266;14.192;2022-12-07T06:54:08;4.06;79.13
75457;SHT31;64036;48.266;14.192;2022-12-07T06:56:35;4.09;79.20
75457;SHT31;64036;48.266;14.192;2022-12-07T06:59:02;4.11;79.10
75457;SHT31;64036;48.266;14.192;2022-12-07T07:01:29;4.11;79.05
75457;SHT31;64036;48.266;14.192;2022-12-07T07:03:54;4.12;78.90
75457;SHT31;64036;48.266;14.192;2022-12-07T07:06:20;4.12;78.81
75457;SHT31;64036;48.266;14.192;2022-12-07T07:08:45;4.13;78.80
75457;SHT31;64036;48.266;14.192;2022-12-07T07:11:11;4.13;78.86
75457;SHT31;64036;48.266;14.192;2022-12-07T07:13:36;4.14;78.87
75457;SHT31;64036;48.266;14.192;2022-12-07T07:16:02;4.12;78.59
75457;SHT31;64036;48.266;14.192;2022-12-07T07:18:29;4.13;78.49
75457;SHT31;64036;48.266;14.192;2022-12-07T07:20:54;4.13;78.39
75457;SHT31;64036;48.266;14.192;2022-12-07T07:23:20;4.14;78.40
75457;SHT31;64036;48.266;14.192;2022-12-07T07:25:50;4.14;78.40
75457;SHT31;64036;48.266;14.192;2022-12-07T07:28:15;4.16;78.27
75457;SHT31;64036;48.266;14.192;2022-12-07T07:30:41;4.18;78.06
75457;SHT31;64036;48.266;14.192;2022-12-07T07:33:07;4.20;77.97
75457;SHT31;64036;48.266;14.192;2022-12-07T07:35:34;4.21;77.82
75457;SHT31;64036;48.266;14.192;2022-12-07T07:38:00;4.23;77.51
75457;SHT31;64036;48.266;14.192;2022-12-07T07:40:27;4.26;77.44
75457;SHT31;64036;48.266;14.192;2022-12-07T07:42:56;4.29;77.52
75457;SHT31;64036;48.266;14.192;2022-12-07T07:45:23;4.32;77.24
75457;SHT31;64036;48.266;14.192;2022-12-07T07:47:50;4.35;77.27
75457;SHT31;64036;48.266;14.192;2022-12-07T07:50:16;4.38;77.15
75457;SHT31;64036;48.266;14.192;2022-12-07T07:52:43;4.36;77.02
75457;SHT31;64036;48.266;14.192;2022-12-07T07:55:10;4.38;76.93
75457;SHT31;64036;48.266;14.192;2022-12-07T07:57:36;4.41;76.82
75457;SHT31;64036;48.266;14.192;2022-12-07T08:00:03;4.41;76.76
75457;SHT31;64036;48.266;14.192;2022-12-07T08:02:31;4.47;76.96
75457;SHT31;64036;48.266;14.192;2022-12-07T08:04:57;4.55;76.90
75457;SHT31;64036;48.266;14.192;2022-12-07T08:07:22;4.63;76.60
75457;SHT31;64036;48.266;14.192;2022-12-07T08:09:48;4.69;76.40
75457;SHT31;64036;48.266;14.192;2022-12-07T08:12:13;4.79;76.30
75457;SHT31;64036;48.266;14.192;2022-12-07T08:14:39;4.95;75.91
75457;SHT31;64036;48.266;14.192;2022-12-07T08:17:04;5.04;75.54
75457;SHT31;64036;48.266;14.192;2022-12-07T08:19:30;5.08;75.23
75457;SHT31;64036;48.266;14.192;2022-12-07T08:21:56;5.13;75.28
75457;SHT31;64036;48.266;14.192;2022-12-07T08:24:22;5.16;75.17
75457;SHT31;64036;48.266;14.192;2022-12-07T08:26:48;5.20;75.09
75457;SHT31;64036;48.266;14.192;2022-12-07T08:29:15;5.27;74.99
75457;SHT31;64036;48.266;14.192;2022-12-07T08:31:40;5.36;74.85
75457;SHT31;64036;48.266;14.192;2022-12-07T08:34:06;5.47;74.87
75457;SHT31;64036;48.266;14.192;2022-12-07T08:36:31;5.57;74.64
75457;SHT31;64036;48.266;14.192;2022-12-07T08:38:57;5.63;74.13
75457;SHT31;64036;48.266;14.192;2022-12-07T08:41:22;5.64;73.98
75457;SHT31;64036;48.266;14.192;2022-12-07T08:43:48;5.65;74.11
75457;SHT31;64036;48.266;14.192;2022-12-07T08:46:18;5.69;74.14
75457;SHT31;64036;48.266;14.192;2022-12-07T08:51:20;5.81;74.21
75457;SHT31;64036;48.266;14.192;2022-12-07T08:53:47;5.85;74.34
75457;SHT31;64036;48.266;14.192;2022-12-07T08:56:15;5.87;74.17
75457;SHT31;64036;48.266;14.192;2022-12-07T08:58:41;5.88;73.96
75457;SHT31;64036;48.266;14.192;2022-12-07T09:01:07;5.86;73.62
75457;SHT31;64036;48.266;14.192;2022-12-07T09:03:33;5.85;73.56
75457;SHT31;64036;48.266;14.192;2022-12-07T09:05:59;5.84;73.59
75457;SHT31;64036;48.266;14.192;2022-12-07T09:08:26;5.91;73.68
75457;SHT31;64036;48.266;14.192;2022-12-07T09:11:00;5.91;73.72
75457;SHT31;64036;48.266;14.192;2022-12-07T09:13:26;5.90;73.78
75457;SHT31;64036;48.266;14.192;2022-12-07T09:15:51;5.99;73.94
75457;SHT31;64036;48.266;14.192;2022-12-07T09:18:17;6.14;73.50
75457;SHT31;64036;48.266;14.192;2022-12-07T09:20:43;6.47;73.13
75457;SHT31;64036;48.266;14.192;2022-12-07T09:23:08;6.64;72.83
75457;SHT31;64036;48.266;14.192;2022-12-07T09:25:34;6.60;72.46
75457;SHT31;64036;48.266;14.192;2022-12-07T09:28:00;6.63;72.82
75457;SHT31;64036;48.266;14.192;2022-12-07T09:30:26;6.72;72.63
75457;SHT31;64036;48.266;14.192;2022-12-07T09:32:53;6.68;72.49
75457;SHT31;64036;48.266;14.192;2022-12-07T09:35:21;6.61;72.69
75457;SHT31;64036;48.266;14.192;2022-12-07T09:37:48;6.58;72.87
75457;SHT31;64036;48.266;14.192;2022-12-07T09:40:13;6.53;72.75
75457;SHT31;64036;48.266;14.192;2022-12-07T09:42:44;6.51;72.93
75457;SHT31;64036;48.266;14.192;2022-12-07T09:45:22;6.59;73.10
75457;SHT31;64036;48.266;14.192;2022-12-07T09:47:51;6.60;72.79
75457;SHT31;64036;48.266;14.192;2022-12-07T09:50:24;6.57;73.03
75457;SHT31;64036;48.266;14.192;2022-12-07T09:52:53;6.58;73.29
75457;SHT31;64036;48.266;14.192;2022-12-07T09:55:30;6.67;73.18
75457;SHT31;64036;48.266;14.192;2022-12-07T09:57:56;6.75;73.12
75457;SHT31;64036;48.266;14.192;2022-12-07T10:00:23;6.81;72.97
75457;SHT31;64036;48.266;14.192;2022-12-07T10:02:53;6.91;73.16
75457;SHT31;64036;48.266;14.192;2022-12-07T10:05:34;7.00;73.02
75457;SHT31;64036;48.266;14.192;2022-12-07T10:08:04;7.04;72.73
75457;SHT31;64036;48.266;14.192;2022-12-07T10:10:31;7.09;72.51
75457;SHT31;64036;48.266;14.192;2022-12-07T10:13:00;7.17;72.53
75457;SHT31;64036;48.266;14.192;2022-12-07T10:24:02;7.46;71.47
75457;SHT31;64036;48.266;14.192;2022-12-07T10:26:34;7.52;70.73
75457;SHT31;64036;48.266;14.192;2022-12-07T10:34:39;7.45;70.41
75457;SHT31;64036;48.266;14.192;2022-12-07T10:39:44;7.45;70.23
75457;SHT31;64036;48.266;14.192;2022-12-07T10:42:23;7.46;70.56
75457;SHT31;64036;48.266;14.192;2022-12-07T10:45:08;7.39;70.34
75457;SHT31;64036;48.266;14.192;2022-12-07T10:59:28;6.80;70.48
75457;SHT31;64036;48.266;14.192;2022-12-07T11:02:32;6.92;70.48
75457;SHT31;64036;48.266;14.192;2022-12-07T11:10:35;7.08;70.14
75457;SHT31;64036;48.266;14.192;2022-12-07T11:21:57;7.32;69.33
75457;SHT31;64036;48.266;14.192;2022-12-07T11:24:35;7.65;68.67
75457;SHT31;64036;48.266;14.192;2022-12-07T11:30:18;8.24;68.09
75457;SHT31;64036;48.266;14.192;2022-12-07T11:35:27;8.37;66.67
75457;SHT31;64036;48.266;14.192;2022-12-07T11:38:18;8.14;66.37
75457;SHT31;64036;48.266;14.192;2022-12-07T11:40:53;7.97;66.52
75457;SHT31;64036;48.266;14.192;2022-12-07T11:43:37;7.77;66.46
75457;SHT31;64036;48.266;14.192;2022-12-07T11:46:52;7.64;66.92
75457;SHT31;64036;48.266;14.192;2022-12-07T11:52:27;7.65;67.37
75457;SHT31;64036;48.266;14.192;2022-12-07T11:55:18;7.61;66.58
75457;SHT31;64036;48.266;14.192;2022-12-07T11:58:14;7.53;66.55
75457;SHT31;64036;48.266;14.192;2022-12-07T12:01:08;7.47;66.86
75457;SHT31;64036;48.266;14.192;2022-12-07T12:03:47;7.38;66.59
75457;SHT31;64036;48.266;14.192;2022-12-07T12:06:19;7.30;67.05
75457;SHT31;64036;48.266;14.192;2022-12-07T12:08:59;7.27;67.31
75457;SHT31;64036;48.266;14.192;2022-12-07T12:11:56;7.23;67.19
75457;SHT31;64036;48.266;14.192;2022-12-07T12:26:20;7.45;67.70
75457;SHT31;64036;48.266;14.192;2022-12-07T12:31:47;7.51;67.34
75457;SHT31;64036;48.266;14.192;2022-12-07T12:42:51;7.27;66.53
75457;SHT31;64036;48.266;14.192;2022-12-07T12:48:00;7.07;67.00
75457;SHT31;64036;48.266;14.192;2022-12-07T12:58:38;7.49;67.13
75457;SHT31;64036;48.266;14.192;2022-12-07T13:10:54;7.74;65.10
75457;SHT31;64036;48.266;14.192;2022-12-07T13:15:47;7.36;64.67
75457;SHT31;64036;48.266;14.192;2022-12-07T13:23:31;6.99;66.10
75457;SHT31;64036;48.266;14.192;2022-12-07T13:28:33;6.95;66.76
75457;SHT31;64036;48.266;14.192;2022-12-07T13:39:44;6.68;66.63
75457;SHT31;64036;48.266;14.192;2022-12-07T13:42:31;6.68;67.05
75457;SHT31;64036;48.266;14.192;2022-12-07T13:45:00;6.65;67.11
75457;SHT31;64036;48.266;14.192;2022-12-07T13:47:52;6.60;66.90
75457;SHT31;64036;48.266;14.192;2022-12-07T13:50:28;6.57;67.02
75457;SHT31;64036;48.266;14.192;2022-12-07T13:53:00;6.55;67.15
75457;SHT31;64036;48.266;14.192;2022-12-07T13:55:29;6.53;67.52
75457;SHT31;64036;48.266;14.192;2022-12-07T13:57:55;6.51;67.76
75457;SHT31;64036;48.266;14.192;2022-12-07T14:00:22;6.45;67.52
75457;SHT31;64036;48.266;14.192;2022-12-07T14:05:38;6.43;67.74
75457;SHT31;64036;48.266;14.192;2022-12-07T14:10:41;6.43;67.93
75457;SHT31;64036;48.266;14.192;2022-12-07T14:13:34;6.46;68.02
75457;SHT31;64036;48.266;14.192;2022-12-07T14:16:26;6.44;68.10
75457;SHT31;64036;48.266;14.192;2022-12-07T14:19:03;6.40;67.96
75457;SHT31;64036;48.266;14.192;2022-12-07T14:21:32;6.41;67.99
75457;SHT31;64036;48.266;14.192;2022-12-07T14:26:49;6.27;67.83
75457;SHT31;64036;48.266;14.192;2022-12-07T14:29:49;6.18;67.89
75457;SHT31;64036;48.266;14.192;2022-12-07T14:35:11;6.04;68.31
75457;SHT31;64036;48.266;14.192;2022-12-07T14:37:39;5.96;68.40
75457;SHT31;64036;48.266;14.192;2022-12-07T14:40:07;5.89;68.85
75457;SHT31;64036;48.266;14.192;2022-12-07T14:42:42;5.85;69.46
75457;SHT31;64036;48.266;14.192;2022-12-07T14:45:19;5.79;69.64
75457;SHT31;64036;48.266;14.192;2022-12-07T14:47:47;5.78;69.97
75457;SHT31;64036;48.266;14.192;2022-12-07T14:50:13;5.78;70.39
75457;SHT31;64036;48.266;14.192;2022-12-07T14:52:53;5.77;70.65
75457;SHT31;64036;48.266;14.192;2022-12-07T14:57:53;5.72;70.72
75457;SHT31;64036;48.266;14.192;2022-12-07T15:00:20;5.72;71.06
75457;SHT31;64036;48.266;14.192;2022-12-07T15:02:48;5.76;71.05
75457;SHT31;64036;48.266;14.192;2022-12-07T15:05:16;5.74;70.98
75457;SHT31;64036;48.266;14.192;2022-12-07T15:07:43;5.70;71.16
75457;SHT31;64036;48.266;14.192;2022-12-07T15:10:17;5.65;71.27
75457;SHT31;64036;48.266;14.192;2022-12-07T15:12:48;5.57;71.31
75457;SHT31;64036;48.266;14.192;2022-12-07T15:15:14;5.55;71.44
75457;SHT31;64036;48.266;14.192;2022-12-07T15:17:40;5.54;71.50
75457;SHT31;64036;48.266;14.192;2022-12-07T15:20:07;5.49;71.67
75457;SHT31;64036;48.266;14.192;2022-12-07T15:22:38;5.44;71.93
75457;SHT31;64036;48.266;14.192;2022-12-07T15:25:03;5.41;71.94
75457;SHT31;64036;48.266;14.192;2022-12-07T15:27:32;5.37;71.95
75457;SHT31;64036;48.266;14.192;2022-12-07T15:29:58;5.34;72.00
75457;SHT31;64036;48.266;14.192;2022-12-07T15:32:24;5.31;72.09
75457;SHT31;64036;48.266;14.192;2022-12-07T15:34:49;5.28;71.99
75457;SHT31;64036;48.266;14.192;2022-12-07T15:37:15;5.24;72.03
75457;SHT31;64036;48.266;14.192;2022-12-07T15:39:41;5.17;72.11
75457;SHT31;64036;48.266;14.192;2022-12-07T15:42:06;5.09;72.21
75457;SHT31;64036;48.266;14.192;2022-12-07T15:44:32;4.99;72.30
75457;SHT31;64036;48.266;14.192;2022-12-07T15:47:16;4.92;72.36
75457;SHT31;64036;48.266;14.192;2022-12-07T15:49:42;4.84;72.34
75457;SHT31;64036;48.266;14.192;2022-12-07T15:52:08;4.75;72.36
75457;SHT31;64036;48.266;14.192;2022-12-07T15:54:33;4.65;72.41
75457;SHT31;64036;48.266;14.192;2022-12-07T15:56:59;4.59;72.49
75457;SHT31;64036;48.266;14.192;2022-12-07T15:59:26;4.54;72.61
75457;SHT31;64036;48.266;14.192;2022-12-07T16:01:54;4.49;72.86
75457;SHT31;64036;48.266;14.192;2022-12-07T16:04:22;4.46;73.15
75457;SHT31;64036;48.266;14.192;2022-12-07T16:06:48;4.46;73.43
75457;SHT31;64036;48.266;14.192;2022-12-07T16:09:17;4.48;73.71
75457;SHT31;64036;48.266;14.192;2022-12-07T16:11:43;4.51;73.87
75457;SHT31;64036;48.266;14.192;2022-12-07T16:14:09;4.54;73.83
75457;SHT31;64036;48.266;14.192;2022-12-07T16:16:34;4.56;73.69
75457;SHT31;64036;48.266;14.192;2022-12-07T16:19:00;4.55;73.69
75457;SHT31;64036;48.266;14.192;2022-12-07T16:21:25;4.55;73.70
75457;SHT31;64036;48.266;14.192;2022-12-07T16:23:51;4.55;73.59
75457;SHT31;64036;48.266;14.192;2022-12-07T16:26:18;4.56;73.51
75457;SHT31;64036;48.266;14.192;2022-12-07T16:28:49;4.57;73.41
75457;SHT31;64036;48.266;14.192;2022-12-07T16:31:18;4.56;73.44
75457;SHT31;64036;48.266;14.192;2022-12-07T16:33:47;4.56;73.55
75457;SHT31;64036;48.266;14.192;2022-12-07T16:36:14;4.58;73.40
75457;SHT31;64036;48.266;14.192;2022-12-07T16:38:41;4.60;73.43
75457;SHT31;64036;48.266;14.192;2022-12-07T16:41:08;4.60;73.48
75457;SHT31;64036;48.266;14.192;2022-12-07T16:43:35;4.63;73.51
75457;SHT31;64036;48.266;14.192;2022-12-07T16:46:02;4.64;73.54
75457;SHT31;64036;48.266;14.192;2022-12-07T16:48:28;4.63;73.50
75457;SHT31;64036;48.266;14.192;2022-12-07T16:50:54;4.61;73.53
75457;SHT31;64036;48.266;14.192;2022-12-07T16:53:20;4.61;73.56
75457;SHT31;64036;48.266;14.192;2022-12-07T16:55:49;4.60;73.61
75457;SHT31;64036;48.266;14.192;2022-12-07T16:58:15;4.61;73.63
75457;SHT31;64036;48.266;14.192;2022-12-07T17:00:43;4.61;73.66
75457;SHT31;64036;48.266;14.192;2022-12-07T17:03:10;4.59;73.79
75457;SHT31;64036;48.266;14.192;2022-12-07T17:05:43;4.57;73.87
75457;SHT31;64036;48.266;14.192;2022-12-07T17:08:10;4.59;73.80
75457;SHT31;64036;48.266;14.192;2022-12-07T17:10:39;4.61;73.85
75457;SHT31;64036;48.266;14.192;2022-12-07T17:13:07;4.62;73.77
75457;SHT31;64036;48.266;14.192;2022-12-07T17:16:01;4.64;73.73
75457;SHT31;64036;48.266;14.192;2022-12-07T17:18:29;4.64;73.79
75457;SHT31;64036;48.266;14.192;2022-12-07T17:21:06;4.64;73.80
75457;SHT31;64036;48.266;14.192;2022-12-07T17:23:34;4.67;73.87
75457;SHT31;64036;48.266;14.192;2022-12-07T17:26:20;4.66;73.84
75457;SHT31;64036;48.266;14.192;2022-12-07T17:28:49;4.61;74.08
75457;SHT31;64036;48.266;14.192;2022-12-07T17:31:15;4.60;74.11
75457;SHT31;64036;48.266;14.192;2022-12-07T17:33:44;4.58;74.12
75457;SHT31;64036;48.266;14.192;2022-12-07T17:36:17;4.59;74.08
75457;SHT31;64036;48.266;14.192;2022-12-07T17:38:46;4.58;74.03
75457;SHT31;64036;48.266;14.192;2022-12-07T17:41:16;4.57;74.10
75457;SHT31;64036;48.266;14.192;2022-12-07T17:44:05;4.55;74.22
75457;SHT31;64036;48.266;14.192;2022-12-07T17:46:34;4.53;74.36
75457;SHT31;64036;48.266;14.192;2022-12-07T17:49:01;4.53;74.40
75457;SHT31;64036;48.266;14.192;2022-12-07T17:51:27;4.49;74.49
75457;SHT31;64036;48.266;14.192;2022-12-07T17:54:11;4.48;74.56
75457;SHT31;64036;48.266;14.192;2022-12-07T17:56:38;4.47;74.64
75457;SHT31;64036;48.266;14.192;2022-12-07T17:59:04;4.49;74.74
75457;SHT31;64036;48.266;14.192;2022-12-07T18:01:31;4.50;74.70
75457;SHT31;64036;48.266;14.192;2022-12-07T18:03:57;4.50;74.70
75457;SHT31;64036;48.266;14.192;2022-12-07T18:06:22;4.50;74.78
75457;SHT31;64036;48.266;14.192;2022-12-07T18:08:48;4.49;74.84
75457;SHT31;64036;48.266;14.192;2022-12-07T18:11:14;4.50;74.82
75457;SHT31;64036;48.266;14.192;2022-12-07T18:13:40;4.47;74.91
75457;SHT31;64036;48.266;14.192;2022-12-07T18:16:07;4.49;74.93
75457;SHT31;64036;48.266;14.192;2022-12-07T18:18:43;4.47;74.88
75457;SHT31;64036;48.266;14.192;2022-12-07T18:21:17;4.44;75.07
75457;SHT31;64036;48.266;14.192;2022-12-07T18:23:49;4.40;74.93
75457;SHT31;64036;48.266;14.192;2022-12-07T18:26:21;4.33;75.11
75457;SHT31;64036;48.266;14.192;2022-12-07T18:28:48;4.30;75.41
75457;SHT31;64036;48.266;14.192;2022-12-07T18:31:15;4.30;75.34
75457;SHT31;64036;48.266;14.192;2022-12-07T18:33:41;4.25;75.30
75457;SHT31;64036;48.266;14.192;2022-12-07T18:36:08;4.23;75.30
75457;SHT31;64036;48.266;14.192;2022-12-07T18:38:35;4.22;75.31
75457;SHT31;64036;48.266;14.192;2022-12-07T18:41:01;4.17;75.28
75457;SHT31;64036;48.266;14.192;2022-12-07T18:43:28;4.14;75.50